This is the latest recevied weather packets stored in our database for station/object DG9LAO-6. If no packets are shown the sender has not sent any weather packets the latest 10 day(s).
| Time | Temp. | Humidity | Pressure | Rain* | Wind** | Luminosity | Snow |
|---|---|---|---|---|---|---|---|
| 1778428148 | 14.44° C | 67% | 1011.3 hPa | 0 mm | - | - | - |
| 1778425153 | 15.56° C | 65% | 1013.2 hPa | 0 mm | - | - | - |
| 1778425148 | 15.56° C | 65% | 1012.1 hPa | 0 mm | - | - | - |
| 1778414351 | 13.89° C | 79% | 1013.4 hPa | 0 mm | - | - | - |
| 1778405949 | 13.89° C | 79% | 1014 hPa | 0 mm | - | - | - |
| 1778389153 | 10° C | 89% | 1016.1 hPa | 0 mm | - | - | - |
| 1778389150 | 10° C | 89% | 1013.9 hPa | 0 mm | - | - | - |
| 1778383749 | 9.44° C | 88% | 1014.6 hPa | 0 mm | - | - | - |
| 1778380148 | 10° C | 87% | 1015 hPa | 0 mm | - | - | - |
| 1778378351 | 10° C | 87% | 1015.1 hPa | 0 mm | - | - | - |
| 1778377751 | 10° C | 86% | 1015.2 hPa | 0 mm | - | - | - |
| 1778372350 | 11.11° C | 84% | 1015.8 hPa | 0 mm | - | - | - |
| 1778370550 | 11.11° C | 82% | 1016.3 hPa | 0 mm | - | - | - |
| 1778360951 | 12.22° C | 74% | 1017.3 hPa | 0 mm | - | - | - |
| 1778357351 | 12.78° C | 73% | 1017.9 hPa | 0 mm | - | - | - |
| 1778355550 | 13.33° C | 73% | 1017.8 hPa | 0 mm | - | - | - |
| 1778346552 | 15° C | 66% | 1017.4 hPa | 0 mm | - | - | - |
| 1778339951 | 16.11° C | 61% | 1018.7 hPa | 0 mm | - | - | - |
| 1778339351 | 16.67° C | 62% | 1018.8 hPa | 0 mm | - | - | - |
| 1778338151 | 16.67° C | 60% | 1018.9 hPa | 0 mm | - | - | - |
| 1778326149 | 17.22° C | 58% | 1025.8 hPa | 0 mm | - | - | - |
| 1778320752 | 16.67° C | 59% | 1020.2 hPa | 0 mm | - | - | - |
| 1778312350 | 10.56° C | 84% | 1021.2 hPa | 0 mm | - | - | - |
| 1778307549 | 10.56° C | 84% | 1021.4 hPa | 0 mm | - | - | - |
| 1778303953 | 7.78° C | 88% | 1023.4 hPa | 0 mm | - | - | - |
* Rain latest hour (hover to see other rain measurements)
** Current wind speed in m/s (hover to see current wind gust speed)